createdAt,value
2019-01-30T00:00:37.396Z,17.03
2019-01-30T00:03:05.894Z,17.43
2019-01-30T00:05:34.363Z,19.50
2019-01-30T00:08:02.785Z,16.97
2019-01-30T00:10:31.255Z,18.30
2019-01-30T00:12:59.698Z,18.67
2019-01-30T00:15:28.172Z,21.50
2019-01-30T00:17:56.540Z,16.37
2019-01-30T00:20:25.787Z,16.00
2019-01-30T00:22:54.250Z,17.73
2019-01-30T00:25:24.013Z,18.80
2019-01-30T00:27:52.619Z,19.23
2019-01-30T00:30:21.811Z,17.07
2019-01-30T00:32:50.292Z,13.53
2019-01-30T00:35:19.819Z,18.40
2019-01-30T00:37:48.292Z,16.20
2019-01-30T00:40:17.531Z,16.93
2019-01-30T00:42:45.970Z,17.23
2019-01-30T00:45:14.499Z,16.10
2019-01-30T00:47:43.029Z,16.40
2019-01-30T00:50:12.059Z,18.77
2019-01-30T00:52:40.531Z,18.43
2019-01-30T00:55:08.995Z,18.53
2019-01-30T00:57:37.439Z,18.90
2019-01-30T01:00:14.367Z,15.93
2019-01-30T01:02:37.827Z,16.57
2019-01-30T01:05:06.497Z,23.07
2019-01-30T01:07:34.928Z,15.60
2019-01-30T01:10:04.167Z,21.53
2019-01-30T01:12:33.526Z,16.20
2019-01-30T01:15:02.044Z,17.93
2019-01-30T01:17:30.663Z,16.73
2019-01-30T01:19:59.194Z,17.07
2019-01-30T01:22:27.679Z,15.20
2019-01-30T01:24:56.049Z,18.10
2019-01-30T01:27:24.473Z,15.60
2019-01-30T01:29:52.880Z,17.50
2019-01-30T01:32:21.324Z,17.37
2019-01-30T01:34:49.804Z,17.50
2019-01-30T01:37:18.272Z,16.30
2019-01-30T01:39:47.250Z,20.43
2019-01-30T01:42:15.687Z,16.03
2019-01-30T01:44:44.156Z,19.30
2019-01-30T01:47:12.671Z,17.63
2019-01-30T01:49:41.040Z,18.83
2019-01-30T01:52:09.540Z,19.40
2019-01-30T01:54:37.895Z,18.53
2019-01-30T01:57:06.243Z,23.20
2019-01-30T01:59:34.724Z,19.00
2019-01-30T02:02:03.091Z,21.60
2019-01-30T02:04:31.643Z,19.90
2019-01-30T02:07:00.086Z,21.10
2019-01-30T02:09:28.482Z,19.10
2019-01-30T02:11:56.903Z,22.03
2019-01-30T02:14:25.459Z,18.60
2019-01-30T02:16:53.807Z,22.60
2019-01-30T02:19:22.230Z,21.70
2019-01-30T02:21:50.691Z,25.93
2019-01-30T02:24:19.144Z,22.93
2019-01-30T02:26:47.575Z,23.63
2019-01-30T02:29:16.071Z,24.00
2019-01-30T02:31:44.472Z,20.23
2019-01-30T02:34:12.984Z,25.63
2019-01-30T02:36:57.118Z,25.73
2019-01-30T02:39:25.686Z,20.30
2019-01-30T02:41:54.125Z,22.63
2019-01-30T02:44:41.695Z,20.13
2019-01-30T02:47:29.284Z,21.20
2019-01-30T02:50:16.854Z,19.03
2019-01-30T02:53:04.448Z,18.17
2019-01-30T04:43:37.900Z,21.17
2019-01-30T04:49:14.765Z,17.43
2019-01-30T04:52:02.356Z,20.03
2019-01-30T04:54:49.940Z,18.17
2019-01-30T04:57:37.524Z,17.20
2019-01-30T05:00:25.116Z,19.63
2019-01-30T05:03:12.697Z,17.70
2019-01-30T05:06:00.303Z,19.83
2019-01-30T05:08:47.866Z,18.40
2019-01-30T05:11:35.462Z,19.00
2019-01-30T05:14:23.042Z,16.83
2019-01-30T05:17:10.698Z,19.10
2019-01-30T05:19:58.275Z,18.93
2019-01-30T05:25:41.865Z,20.63
2019-01-30T05:28:29.444Z,18.50
2019-01-30T05:31:17.052Z,16.07
2019-01-30T05:34:04.648Z,18.30
2019-01-30T05:36:52.235Z,16.40
2019-01-30T05:39:39.804Z,20.90
2019-01-30T05:42:27.402Z,17.87
2019-01-30T05:54:14.467Z,15.80
2019-01-30T05:59:51.221Z,19.07
2019-01-30T06:02:38.795Z,18.80
2019-01-30T06:05:26.439Z,19.83
2019-01-30T06:08:14.014Z,22.57
2019-01-30T06:11:01.610Z,17.87
2019-01-30T06:13:49.260Z,19.50
2019-01-30T06:16:36.884Z,22.23
2019-01-30T06:19:24.513Z,20.20
2019-01-30T06:22:12.249Z,20.70
2019-01-30T06:24:59.913Z,19.70
2019-01-30T06:27:28.461Z,21.10
2019-01-30T06:30:28.678Z,19.45
2019-01-30T06:33:05.732Z,20.40
2019-01-30T06:35:53.338Z,19.23
2019-01-30T06:38:40.900Z,21.62
2019-01-30T06:41:28.498Z,23.25
2019-01-30T06:44:16.072Z,26.03
2019-01-30T06:47:03.804Z,18.57
2019-01-30T06:49:51.384Z,22.03
2019-01-30T06:52:39.036Z,22.93
2019-01-30T06:58:20.298Z,20.00
2019-01-30T07:01:07.876Z,17.67
2019-01-30T07:03:55.479Z,19.73
2019-01-30T07:06:43.157Z,18.40
2019-01-30T07:09:30.730Z,16.83
2019-01-30T07:12:18.283Z,23.10
2019-01-30T07:15:06.173Z,17.37
2019-01-30T07:17:53.764Z,17.30
2019-01-30T07:20:41.368Z,17.47
2019-01-30T07:23:28.956Z,20.17
2019-01-30T07:26:16.561Z,19.77
2019-01-30T07:29:04.131Z,16.97
2019-01-30T07:31:51.728Z,19.27
2019-01-30T07:34:39.293Z,17.40
2019-01-30T07:37:26.940Z,16.40
2019-01-30T07:40:14.544Z,18.33
2019-01-30T07:43:02.151Z,18.30
2019-01-30T07:45:49.803Z,17.43
2019-01-30T07:51:28.452Z,19.60
2019-01-30T07:54:08.412Z,21.93
2019-01-30T07:56:48.797Z,18.60
2019-01-30T07:59:29.006Z,17.20
2019-01-30T08:02:09.197Z,17.87
2019-01-30T08:04:49.440Z,17.47
2019-01-30T08:07:29.816Z,18.33
2019-01-30T08:10:09.767Z,13.87
2019-01-30T08:12:49.913Z,15.63
2019-01-30T08:15:30.144Z,16.73
2019-01-30T08:18:10.417Z,17.07
2019-01-30T08:20:48.820Z,17.30
2019-01-30T08:32:15.881Z,17.57
2019-01-30T08:35:05.145Z,18.87
2019-01-30T08:37:52.712Z,17.87
2019-01-30T08:40:21.177Z,18.20
2019-01-30T08:43:08.779Z,17.37
2019-01-30T08:45:56.328Z,14.60
2019-01-30T08:48:43.951Z,17.03
2019-01-30T08:51:31.534Z,19.83
2019-01-30T08:54:19.533Z,18.83
2019-01-30T08:57:18.931Z,14.87
2019-01-30T08:59:56.423Z,15.17
2019-01-30T09:02:24.877Z,18.07
2019-01-30T09:05:12.554Z,14.03
2019-01-30T09:08:00.115Z,16.57
2019-01-30T09:10:47.723Z,14.97
2019-01-30T09:13:35.325Z,14.97
2019-01-30T09:16:22.920Z,14.67
2019-01-30T09:19:10.522Z,16.63
2019-01-30T09:21:58.122Z,18.20
2019-01-30T09:24:45.676Z,15.87
2019-01-30T09:27:33.295Z,20.40
2019-01-30T09:30:01.866Z,16.03
2019-01-30T09:32:49.469Z,14.33
2019-01-30T09:53:33.717Z,19.27
2019-01-30T09:56:21.386Z,23.73
2019-01-30T09:59:08.964Z,21.37
2019-01-30T10:01:56.556Z,21.50
2019-01-30T10:04:44.193Z,24.53
2019-01-30T10:07:31.781Z,21.33
2019-01-30T10:10:19.517Z,23.47
2019-01-30T10:16:14.259Z,21.00
2019-01-30T10:19:01.957Z,24.47
2019-01-30T10:21:49.595Z,20.50
2019-01-30T10:24:56.299Z,21.33
2019-01-30T10:27:44.107Z,22.77
2019-01-30T10:30:31.669Z,27.47
2019-01-30T10:33:19.534Z,27.20
2019-01-30T10:36:07.128Z,26.80
2019-01-30T10:38:54.765Z,24.43
2019-01-30T10:41:42.409Z,21.73
2019-01-30T10:44:30.020Z,27.27
2019-01-30T10:47:17.605Z,22.93
2019-01-30T10:49:46.119Z,23.53
2019-01-30T10:52:33.659Z,28.83
2019-01-30T11:04:02.204Z,26.23
2019-01-30T11:06:49.760Z,30.07
2019-01-30T11:09:37.384Z,24.07
2019-01-30T11:12:25.012Z,28.10
2019-01-30T11:15:12.609Z,26.47
2019-01-30T11:18:00.243Z,24.73
2019-01-30T11:20:47.997Z,25.60
2019-01-30T11:23:35.562Z,30.60
2019-01-30T11:26:04.222Z,23.47
2019-01-30T11:31:41.020Z,27.10
2019-01-30T11:34:28.593Z,24.70
2019-01-30T11:37:16.304Z,26.27
2019-01-30T11:40:03.889Z,28.33
2019-01-30T11:42:51.532Z,24.07
2019-01-30T11:45:39.243Z,25.23
2019-01-30T11:48:26.895Z,24.97
2019-01-30T11:54:42.807Z,30.97
2019-01-30T11:57:30.475Z,28.10
2019-01-30T12:03:17.468Z,27.23
2019-01-30T12:08:58.212Z,29.33
2019-01-30T12:11:45.804Z,23.60
2019-01-30T12:14:33.462Z,27.07
2019-01-30T12:17:21.643Z,25.30
2019-01-30T12:20:09.249Z,33.47
2019-01-30T12:22:57.111Z,23.10
2019-01-30T12:29:01.133Z,25.73
2019-01-30T12:31:48.878Z,24.00
2019-01-30T12:34:36.448Z,25.93
2019-01-30T12:37:24.060Z,23.00
2019-01-30T12:40:11.769Z,24.00
2019-01-30T12:42:59.373Z,24.00
2019-01-30T12:45:46.959Z,23.77
2019-01-30T12:48:34.543Z,28.57
2019-01-30T12:51:22.109Z,24.80
2019-01-30T12:54:09.772Z,25.87
2019-01-30T12:56:57.382Z,32.43
2019-01-30T12:59:45.358Z,35.77
2019-01-30T13:11:15.787Z,24.60
2019-01-30T13:14:03.343Z,24.07
2019-01-30T13:16:50.928Z,23.70
2019-01-30T13:19:38.581Z,29.77
2019-01-30T13:22:26.255Z,28.43
2019-01-30T13:25:13.920Z,24.27
2019-01-30T13:28:01.486Z,24.23
2019-01-30T13:31:08.207Z,25.47
2019-01-30T13:39:47.431Z,31.00
2019-01-30T13:42:35.001Z,25.10
2019-01-30T13:48:18.437Z,27.33
2019-01-30T13:51:06.325Z,21.80
2019-01-30T13:53:53.968Z,24.53
2019-01-30T13:56:22.465Z,30.47
2019-01-30T13:59:10.081Z,26.63
2019-01-30T18:25:39.172Z,79.13
2019-01-30T18:28:26.821Z,81.27
2019-01-30T18:31:14.451Z,81.00
2019-01-30T18:34:02.047Z,81.27
2019-01-30T18:36:49.662Z,79.57
2019-01-30T18:39:37.249Z,83.43
2019-01-30T18:42:24.875Z,77.87
2019-01-30T18:48:21.994Z,84.43
2019-01-30T18:51:09.854Z,83.00
2019-01-30T18:53:57.456Z,81.43
2019-01-30T18:56:45.053Z,85.87
2019-01-30T18:59:32.652Z,85.80
2019-01-30T19:02:20.209Z,89.43
2019-01-30T19:05:07.812Z,100.78
2019-01-30T19:07:55.425Z,95.73
2019-01-30T19:20:30.051Z,94.20
2019-01-30T19:22:59.764Z,85.03
2019-01-30T19:25:47.485Z,90.67
2019-01-30T19:28:16.474Z,212.97
2019-01-30T19:30:45.334Z,217.30
2019-01-30T19:33:14.085Z,214.00
2019-01-30T19:35:42.641Z,221.27
2019-01-30T19:38:11.212Z,149.50
2019-01-30T19:40:39.973Z,98.23
2019-01-30T19:43:08.793Z,109.07
2019-01-30T19:45:37.504Z,165.27
2019-01-30T19:48:08.373Z,126.67
2019-01-30T19:50:36.993Z,128.03
2019-01-30T19:53:05.875Z,121.93
2019-01-30T19:55:34.860Z,119.43
2019-01-30T19:58:03.623Z,116.13
2019-01-30T20:00:33.427Z,115.27
2019-01-30T20:03:02.488Z,108.83
2019-01-30T20:05:31.226Z,115.00
2019-01-30T20:08:00.061Z,119.93
2019-01-30T20:10:29.579Z,110.23
2019-01-30T20:12:58.036Z,121.67
2019-01-30T20:15:26.834Z,122.50
2019-01-30T20:17:55.462Z,108.37
2019-01-30T20:20:24.945Z,112.80
2019-01-30T20:22:54.455Z,107.30
2019-01-30T20:25:24.204Z,110.47
2019-01-30T20:27:52.748Z,134.47
2019-01-30T20:30:21.903Z,116.00
2019-01-30T20:32:50.680Z,106.67
2019-01-30T20:35:20.149Z,114.23
2019-01-30T20:37:48.594Z,112.40
2019-01-30T20:40:18.167Z,103.33
2019-01-30T20:42:46.723Z,112.00
2019-01-30T20:45:15.239Z,104.77
2019-01-30T20:47:43.771Z,116.00
2019-01-30T20:50:16.260Z,103.87
2019-01-30T20:52:44.739Z,108.67
2019-01-30T20:55:13.603Z,100.87
2019-01-30T20:57:45.049Z,106.00
2019-01-30T21:00:22.740Z,105.50
2019-01-30T21:02:51.420Z,101.10
2019-01-30T21:05:19.939Z,93.33
2019-01-30T21:07:50.986Z,94.13
2019-01-30T21:10:21.432Z,101.70
2019-01-30T21:12:50.564Z,97.50
2019-01-30T21:15:18.987Z,98.23
2019-01-30T21:17:47.761Z,104.17
2019-01-30T21:20:16.327Z,100.30
2019-01-30T21:22:46.303Z,104.67
2019-01-30T21:25:18.800Z,95.43
2019-01-30T21:27:47.485Z,105.60
2019-01-30T21:30:17.357Z,98.17
2019-01-30T21:32:45.956Z,96.27
2019-01-30T21:35:14.507Z,89.13
2019-01-30T21:37:49.191Z,101.87
2019-01-30T21:40:14.364Z,95.70
2019-01-30T21:42:42.780Z,91.37
2019-01-30T21:45:12.255Z,102.27
2019-01-30T21:47:42.697Z,91.97
2019-01-30T21:50:11.683Z,100.43
2019-01-30T21:52:40.111Z,98.53
2019-01-30T21:55:11.254Z,97.63
2019-01-30T21:57:39.814Z,97.60
2019-01-30T22:00:09.995Z,98.37
2019-01-30T22:02:38.859Z,95.70
2019-01-30T22:05:07.591Z,98.70
2019-01-30T22:07:36.632Z,101.77
2019-01-30T22:10:06.548Z,108.03
2019-01-30T22:12:36.311Z,95.13
2019-01-30T22:15:05.683Z,101.93
2019-01-30T22:17:34.337Z,104.27
2019-01-30T22:20:02.747Z,93.53
2019-01-30T22:22:31.927Z,98.53
2019-01-30T22:25:00.614Z,95.87
2019-01-30T22:27:29.218Z,104.67
2019-01-30T22:29:57.962Z,100.07
2019-01-30T22:32:27.507Z,99.37
2019-01-30T22:34:56.159Z,98.07
2019-01-30T22:37:24.507Z,92.27
2019-01-30T22:39:54.044Z,93.40
2019-01-30T22:42:22.399Z,90.60
2019-01-30T22:44:50.743Z,96.90
2019-01-30T22:47:20.032Z,90.83
2019-01-30T22:49:48.978Z,82.53
2019-01-30T22:52:17.437Z,89.57
2019-01-30T22:54:46.245Z,83.77
2019-01-30T22:57:16.208Z,84.97
2019-01-30T22:59:44.927Z,82.53
2019-01-30T23:02:13.562Z,85.70
2019-01-30T23:04:44.876Z,83.13
2019-01-30T23:07:32.818Z,79.70
2019-01-30T23:10:20.467Z,80.73
2019-01-30T23:13:23.251Z,81.40
2019-01-30T23:16:02.120Z,72.40
2019-01-30T23:18:39.959Z,66.80
2019-01-30T23:21:17.155Z,82.17
2019-01-30T23:24:04.712Z,78.13
2019-01-30T23:26:35.607Z,73.10
2019-01-30T23:29:26.593Z,73.30
2019-01-30T23:32:13.015Z,77.60
2019-01-30T23:35:00.605Z,76.87
2019-01-30T23:37:52.845Z,75.97
2019-01-30T23:40:45.666Z,74.80
2019-01-30T23:43:19.272Z,72.23
2019-01-30T23:46:16.123Z,67.60
2019-01-30T23:49:01.408Z,70.43
2019-01-30T23:51:33.539Z,71.00
2019-01-30T23:54:06.551Z,72.23
2019-01-30T23:56:56.417Z,70.00
2019-01-30T23:59:46.775Z,76.67
